Reston, Virginia
Current Conditions -  °F | °C
As of 8:52 AM on Sunday 25 Jan 2015 (Local Time) from KIAD Reporting Station
Overcast Overcast  
Wind Chill: 32°   Ceiling: 4500
Heat Index: 37°   Visibility: 10mi
Dew Point: 27°   Wind: 7mph
Humidity: 67%   Direction: 200°SSW
Pressure: 29.84"   Gusts: NA
Location:  38.96°N, 77.35°W
Report Text: KIAD 251352Z 20006KT 10SM OVC045 03/M03 A2984 RMK AO2 SLP105 T00281028 $
Loading
Personal Weather Stations






























Interactive Weather Map New forecast layout! Learn more

10-Day Weather Forecast

Advertisements
Track Severe Weather on mobile